地図

経路データ

SID SEASON NUMBER BASIN SUBBASIN NAME ISO_TIME NATURE LAT LON WMO_WIND WMO_PRES WMO_AGENCY TRACK_TYPE DIST2LAND LANDFALL IFLAG USA_AGENCY USA_ATCF_ID USA_LAT USA_LON USA_RECORD USA_STATUS USA_WIND USA_PRES USA_SSHS USA_R34_NE USA_R34_SE USA_R34_SW USA_R34_NW USA_R50_NE USA_R50_SE USA_R50_SW USA_R50_NW USA_R64_NE USA_R64_SE USA_R64_SW USA_R64_NW USA_POCI USA_ROCI USA_RMW USA_EYE TOKYO_LAT TOKYO_LON TOKYO_GRADE TOKYO_WIND TOKYO_PRES TOKYO_R50_DIR TOKYO_R50_LONG TOKYO_R50_SHORT TOKYO_R30_DIR TOKYO_R30_LONG TOKYO_R30_SHORT TOKYO_LAND CMA_LAT CMA_LON CMA_CAT CMA_WIND CMA_PRES HKO_LAT HKO_LON HKO_CAT HKO_WIND HKO_PRES NEWDELHI_LAT NEWDELHI_LON NEWDELHI_GRADE NEWDELHI_WIND NEWDELHI_PRES NEWDELHI_CI NEWDELHI_DP NEWDELHI_POCI REUNION_LAT REUNION_LON REUNION_TYPE REUNION_WIND REUNION_PRES REUNION_TNUM REUNION_CI REUNION_RMW REUNION_R34_NE REUNION_R34_SE REUNION_R34_SW REUNION_R34_NW REUNION_R50_NE REUNION_R50_SE REUNION_R50_SW REUNION_R50_NW REUNION_R64_NE REUNION_R64_SE REUNION_R64_SW REUNION_R64_NW BOM_LAT BOM_LON BOM_TYPE BOM_WIND BOM_PRES BOM_TNUM BOM_CI BOM_RMW BOM_R34_NE BOM_R34_SE BOM_R34_SW BOM_R34_NW BOM_R50_NE BOM_R50_SE BOM_R50_SW BOM_R50_NW BOM_R64_NE BOM_R64_SE BOM_R64_SW BOM_R64_NW BOM_ROCI BOM_POCI BOM_EYE BOM_POS_METHOD BOM_PRES_METHOD NADI_LAT NADI_LON NADI_CAT NADI_WIND NADI_PRES WELLINGTON_LAT WELLINGTON_LON WELLINGTON_WIND WELLINGTON_PRES DS824_LAT DS824_LON DS824_STAGE DS824_WIND DS824_PRES TD9636_LAT TD9636_LON TD9636_STAGE TD9636_WIND TD9636_PRES TD9635_LAT TD9635_LON TD9635_WIND TD9635_PRES TD9635_ROCI NEUMANN_LAT NEUMANN_LON NEUMANN_CLASS NEUMANN_WIND NEUMANN_PRES MLC_LAT MLC_LON MLC_CLASS MLC_WIND MLC_PRES USA_GUST BOM_GUST BOM_GUST_PER REUNION_GUST REUNION_GUST_PER USA_SEAHGT USA_SEARAD_NE USA_SEARAD_SE USA_SEARAD_SW USA_SEARAD_NW STORM_SPEED STORM_DIR
1989254N13340 1989 98 NA NA HUGO 1989-09-10 12:00:00 TS 13.2000 -20.0000 25 1010 hurdat_atl main 317 317 O_____________ hurdat_atl AL111989 13.2000 -20.0000 TD 25 1010 -1 17 275
1989254N13340 1989 98 NA NA HUGO 1989-09-10 15:00:00 TS 13.2680 -20.8874 main 399 399 P_____________ AL111989 13.2680 -20.8874 TD 25 1010 -1 18 273
1989254N13340 1989 98 NA NA HUGO 1989-09-10 18:00:00 TS 13.3000 -21.8000 25 1010 hurdat_atl main 489 489 O_____________ hurdat_atl AL111989 13.3000 -21.8000 TD 25 1010 -1 18 270
1989254N13340 1989 98 NA NA HUGO 1989-09-10 21:00:00 TS 13.2723 -22.7501 main 593 593 P_____________ AL111989 13.2723 -22.7501 TD 27 1009 -1 19 267
1989254N13340 1989 98 NA NA HUGO 1989-09-11 00:00:00 TS 13.2000 -23.7000 30 1009 hurdat_atl main 690 690 O_____________ hurdat_atl AL111989 13.2000 -23.7000 TD 30 1009 -1 18 265
1989254N13340 1989 98 NA NA HUGO 1989-09-11 03:00:00 TS 13.1071 -24.6075 main 787 787 P_____________ AL111989 13.1071 -24.6075 TD 30 1008 -1 18 263
1989254N13340 1989 98 NA NA HUGO 1989-09-11 06:00:00 TS 13.0000 -25.5000 30 1007 hurdat_atl main 884 884 O_____________ hurdat_atl AL111989 13.0000 -25.5000 TD 30 1007 -1 18 263
1989254N13340 1989 98 NA NA HUGO 1989-09-11 09:00:00 TS 12.9071 -26.3923 main 982 982 P_____________ AL111989 12.9071 -26.3923 TD 30 1006 -1 18 263
1989254N13340 1989 98 NA NA HUGO 1989-09-11 12:00:00 TS 12.8000 -27.3000 30 1005 hurdat_atl main 1080 1080 O_____________ hurdat_atl AL111989 12.8000 -27.3000 TD 30 1005 -1 18 261
1989254N13340 1989 98 NA NA HUGO 1989-09-11 15:00:00 TS 12.6348 -28.2502 main 1190 1190 P_____________ AL111989 12.6348 -28.2502 TD 32 1004 -1 19 261
1989254N13340 1989 98 NA NA HUGO 1989-09-11 18:00:00 TS 12.5000 -29.2000 35 1003 hurdat_atl main 1288 1288 O_____________ hurdat_atl AL111989 12.5000 -29.2000 TS 35 1003 0 18 265
1989254N13340 1989 98 NA NA HUGO 1989-09-11 21:00:00 TS 12.4771 -30.0998 main 1384 1384 P_____________ AL111989 12.4771 -30.0998 TS 37 1002 0 18 270
1989254N13340 1989 98 NA NA HUGO 1989-09-12 00:00:00 TS 12.5000 -31.0000 40 1002 hurdat_atl main 1480 1480 O_____________ hurdat_atl AL111989 12.5000 -31.0000 TS 40 1002 0 18 271
1989254N13340 1989 98 NA NA HUGO 1989-09-12 03:00:00 TS 12.4997 -31.9425 main 1576 1576 P_____________ AL111989 12.4997 -31.9425 TS 42 1001 0 19 270
1989254N13340 1989 98 NA NA HUGO 1989-09-12 06:00:00 TS 12.5000 -32.9000 45 1000 hurdat_atl main 1683 1683 O_____________ hurdat_atl AL111989 12.5000 -32.9000 TS 45 1000 0 19 270
1989254N13340 1989 98 NA NA HUGO 1989-09-12 09:00:00 TS 12.4922 -33.8501 main 1790 1790 P_____________ AL111989 12.4922 -33.8501 TS 45 999 0 19 270
1989254N13340 1989 98 NA NA HUGO 1989-09-12 12:00:00 TS 12.5000 -34.8000 45 998 hurdat_atl main 1811 1783 O_____________ hurdat_atl AL111989 12.5000 -34.8000 TS 45 998 0 19 272
1989254N13340 1989 98 NA NA HUGO 1989-09-12 15:00:00 TS 12.5500 -35.7798 main 1781 1770 P_____________ AL111989 12.5500 -35.7798 TS 47 997 0 19 273
1989254N13340 1989 98 NA NA HUGO 1989-09-12 18:00:00 TS 12.6000 -36.7000 50 996 hurdat_atl main 1770 1756 O_____________ hurdat_atl AL111989 12.6000 -36.7000 TS 50 996 0 16 272
1989254N13340 1989 98 NA NA HUGO 1989-09-12 21:00:00 TS 12.5993 -37.4576 main 1755 1714 P_____________ AL111989 12.5993 -37.4576 TS 52 995 0 15 270
1989254N13340 1989 98 NA NA HUGO 1989-09-13 00:00:00 TS 12.6000 -38.2000 55 994 hurdat_atl main 1714 1641 O_____________ hurdat_atl AL111989 12.6000 -38.2000 TS 55 994 0 16 272
1989254N13340 1989 98 NA NA HUGO 1989-09-13 03:00:00 TS 12.6424 -39.0775 main 1632 1567 P_____________ AL111989 12.6424 -39.0775 TS 55 993 0 18 273
1989254N13340 1989 98 NA NA HUGO 1989-09-13 06:00:00 TS 12.7000 -40.0000 55 992 hurdat_atl main 1558 1487 O_____________ hurdat_atl AL111989 12.7000 -40.0000 TS 55 992 0 18 274
1989254N13340 1989 98 NA NA HUGO 1989-09-13 09:00:00 TS 12.7573 -40.9074 main 1487 1413 P_____________ AL111989 12.7573 -40.9074 TS 57 991 0 18 273
1989254N13340 1989 98 NA NA HUGO 1989-09-13 12:00:00 TS 12.8000 -41.8000 60 990 hurdat_atl main 1413 1349 O_____________ hurdat_atl AL111989 12.8000 -41.8000 TS 60 990 0 17 271
1989254N13340 1989 98 NA NA HUGO 1989-09-13 15:00:00 TS 12.7999 -42.6801 main 1341 1281 P_____________ AL111989 12.7999 -42.6801 TS 62 988 0 17 270
1989254N13340 1989 98 NA NA HUGO 1989-09-13 18:00:00 TS 12.8000 -43.5000 65 987 hurdat_atl main 1281 1231 O_____________ hurdat_atl AL111989 12.8000 -43.5000 HU 65 987 1 15 272
1989254N13340 1989 98 NA NA HUGO 1989-09-13 21:00:00 TS 12.8421 -44.2225 main 1231 1192 P_____________ AL111989 12.8421 -44.2225 HU 67 985 1 14 274
1989254N13340 1989 98 NA NA HUGO 1989-09-14 00:00:00 TS 12.9000 -44.9000 70 984 hurdat_atl main 1192 1149 O_____________ hurdat_atl AL111989 12.9000 -44.9000 HU 70 984 1 13 274
1989254N13340 1989 98 NA NA HUGO 1989-09-14 03:00:00 TS 12.9423 -45.5926 main 1149 1114 P_____________ AL111989 12.9423 -45.5926 HU 75 982 1 14 274
1989254N13340 1989 98 NA NA HUGO 1989-09-14 06:00:00 TS 13.0000 -46.3000 80 980 hurdat_atl main 1114 1077 O_____________ hurdat_atl AL111989 13.0000 -46.3000 HU 80 980 1 14 275
1989254N13340 1989 98 NA NA HUGO 1989-09-14 09:00:00 TS 13.0775 -47.0576 main 1071 1039 P_____________ AL111989 13.0775 -47.0576 HU 82 977 1 15 278
1989254N13340 1989 98 NA NA HUGO 1989-09-14 12:00:00 TS 13.2000 -47.8000 85 975 hurdat_atl main 1039 1022 O_____________ hurdat_atl AL111989 13.2000 -47.8000 HU 85 975 2 14 283
1989254N13340 1989 98 NA NA HUGO 1989-09-14 15:00:00 TS 13.3997 -48.4574 main 1022 1013 P_____________ AL111989 13.3997 -48.4574 HU 87 972 2 13 288
1989254N13340 1989 98 NA NA HUGO 1989-09-14 18:00:00 TS 13.6000 -49.1000 90 970 hurdat_atl main 1014 996 O_____________ hurdat_atl AL111989 13.6000 -49.1000 HU 90 970 2 13 284
1989254N13340 1989 98 NA NA HUGO 1989-09-14 21:00:00 TS 13.7149 -49.7927 main 996 973 P_____________ AL111989 13.7149 -49.7927 HU 95 966 2 14 278
1989254N13340 1989 98 NA NA HUGO 1989-09-15 00:00:00 TS 13.8000 -50.5000 100 962 hurdat_atl main 973 954 O_____________ hurdat_atl AL111989 13.8000 -50.5000 HU 100 962 3 14 278
1989254N13340 1989 98 NA NA HUGO 1989-09-15 03:00:00 TS 13.8998 -51.2001 main 954 941 P_____________ AL111989 13.8998 -51.2001 HU 105 959 3 14 278
1989254N13340 1989 98 NA NA HUGO 1989-09-15 06:00:00 TS 14.0000 -51.9000 110 957 hurdat_atl main 941 930 O_____________ hurdat_atl AL111989 14.0000 -51.9000 HU 110 957 3 14 278
1989254N13340 1989 98 NA NA HUGO 1989-09-15 09:00:00 TS 14.0849 -52.6077 main 935 923 P_____________ AL111989 14.0849 -52.6077 HU 117 948 4 14 278
1989254N13340 1989 98 NA NA HUGO 1989-09-15 12:00:00 TS 14.2000 -53.3000 125 940 hurdat_atl main 923 875 O_____________ hurdat_atl AL111989 14.2000 -53.3000 HU 125 940 4 13 284
1989254N13340 1989 98 NA NA HUGO 1989-09-15 15:00:00 TS 14.3996 -53.9424 main 875 820 P_____________ AL111989 14.3996 -53.9424 HU 132 929 4 13 288
1989254N13340 1989 98 NA NA HUGO 1989-09-15 18:00:00 TS 14.6000 -54.6000 140 918 hurdat_atl main 820 763 O_____________ hurdat_atl AL111989 14.6000 -54.6000 HU 140 918 5 14 283
1989254N13340 1989 98 NA NA HUGO 1989-09-15 21:00:00 TS 14.7076 -55.3577 main 754 702 P_____________ AL111989 14.7076 -55.3577 HU 137 920 5 15 278
1989254N13340 1989 98 NA NA HUGO 1989-09-16 00:00:00 TS 14.8000 -56.1000 135 923 hurdat_atl main 702 662 O_____________ hurdat_atl AL111989 14.8000 -56.1000 HU 135 923 4 13 280
1989254N13340 1989 98 NA NA HUGO 1989-09-16 03:00:00 TS 14.9422 -56.7300 main 662 635 P_____________ AL111989 14.9422 -56.7300 HU 132 925 4 12 285
1989254N13340 1989 98 NA NA HUGO 1989-09-16 06:00:00 TS 15.1000 -57.3000 130 927 hurdat_atl main 635 611 O_____________ hurdat_atl AL111989 15.1000 -57.3000 HU 130 927 4 11 285
1989254N13340 1989 98 NA NA HUGO 1989-09-16 09:00:00 TS 15.2424 -57.8651 main 605 596 P_____________ AL111989 15.2424 -57.8651 HU 125 933 4 11 286
1989254N13340 1989 98 NA NA HUGO 1989-09-16 12:00:00 TS 15.4000 -58.4000 120 940 hurdat_atl main 596 587 O_____________ hurdat_atl AL111989 15.4000 -58.4000 HU 120 940 4 11 290
1989254N13340 1989 98 NA NA HUGO 1989-09-16 15:00:00 TS 15.5998 -58.9075 main 593 589 P_____________ AL111989 15.5998 -58.9075 HU 120 940 4 10 293
1989254N13340 1989 98 NA NA HUGO 1989-09-16 18:00:00 TS 15.8000 -59.4000 120 941 hurdat_atl main 596 593 O_____________ hurdat_atl AL111989 15.8000 -59.4000 HU 120 941 4 10 291
1989254N13340 1989 98 NA NA HUGO 1989-09-16 21:00:00 TS 15.9621 -59.8935 main 605 599 P_____________ AL111989 15.9621 -59.8935 HU 120 941 4 10 287
1989254N13340 1989 98 NA CS HUGO 1989-09-17 00:00:00 TS 16.1000 -60.4000 120 941 hurdat_atl main 600 547 O_____________ hurdat_atl AL111989 16.1000 -60.4000 HU 120 941 4 10 282
1989254N13340 1989 98 NA CS HUGO 1989-09-17 03:00:00 TS 16.1797 -60.9231 main 547 503 P_____________ AL111989 16.1797 -60.9231 HU 120 941 4 11 283
1989254N13340 1989 98 NA CS HUGO 1989-09-17 05:00:00 TS 16.3000 -61.3000 120 941 hurdat_atl main 503 479 O_____________ hurdat_atl AL111989 16.3000 -61.3000 L HU 120 941 4 12 292
1989254N13340 1989 98 NA CS HUGO 1989-09-17 06:00:00 TS 16.4000 -61.5000 120 943 hurdat_atl main 479 426 O_____________ hurdat_atl AL111989 16.4000 -61.5000 HU 120 943 4 11 290
1989254N13340 1989 98 NA CS HUGO 1989-09-17 09:00:00 TS 16.5478 -62.0273 main 426 374 P_____________ AL111989 16.5478 -62.0273 HU 122 946 4 10 282
1989254N13340 1989 98 NA CS HUGO 1989-09-17 12:00:00 TS 16.6000 -62.5000 125 949 hurdat_atl main 374 322 O_____________ hurdat_atl AL111989 16.6000 -62.5000 HU 125 949 4 10 281
1989254N13340 1989 98 NA CS HUGO 1989-09-17 15:00:00 TS 16.7426 -63.0299 main 322 265 P_____________ AL111989 16.7426 -63.0299 HU 125 947 4 10 287
1989254N13340 1989 98 NA CS HUGO 1989-09-17 18:00:00 TS 16.9000 -63.5000 125 945 hurdat_atl main 265 233 O_____________ hurdat_atl AL111989 16.9000 -63.5000 HU 125 945 4 8 291
1989254N13340 1989 98 NA CS HUGO 1989-09-17 21:00:00 TS 17.0348 -63.8227 main 233 194 P_____________ AL111989 17.0348 -63.8227 HU 127 939 4 6 298
1989254N13340 1989 98 NA CS HUGO 1989-09-18 00:00:00 TS 17.2000 -64.1000 130 934 hurdat_atl main 194 155 O_____________ hurdat_atl AL111989 17.2000 -64.1000 HU 130 934 4 7 304
1989254N13340 1989 98 NA CS HUGO 1989-09-18 03:00:00 TS 17.4350 -64.4425 main 155 101 P_____________ AL111989 17.4350 -64.4425 HU 125 937 4 8 307
1989254N13340 1989 98 NA CS HUGO 1989-09-18 06:00:00 TS 17.7000 -64.8000 120 940 hurdat_atl main 101 62 O_____________ hurdat_atl AL111989 17.7000 -64.8000 L HU 120 940 4 9 306
1989254N13340 1989 98 NA CS HUGO 1989-09-18 09:00:00 TS 17.9365 -65.1636 main 53 10 P_____________ AL111989 17.9365 -65.1636 HU 115 942 4 8 307
1989254N13340 1989 98 NA CS HUGO 1989-09-18 12:00:00 TS 18.2000 -65.5000 110 945 hurdat_atl main 10 0 O_____________ hurdat_atl AL111989 18.2000 -65.5000 L HU 110 945 3 8 311
1989254N13340 1989 98 NA CS HUGO 1989-09-18 13:00:00 TS 18.3000 -65.6000 110 946 hurdat_atl main 0 0 O_____________ hurdat_atl AL111989 18.3000 -65.6000 L HU 110 946 3 11 316
1989254N13340 1989 98 NA NA HUGO 1989-09-18 15:00:00 TS 18.5910 -65.8978 main 22 22 P_____________ AL111989 18.5910 -65.8978 HU 108 950 3 13 317
1989254N13340 1989 98 NA NA HUGO 1989-09-18 18:00:00 TS 19.1000 -66.4000 105 958 hurdat_atl main 78 78 O_____________ hurdat_atl AL111989 19.1000 -66.4000 HU 105 958 3 11 319
1989254N13340 1989 98 NA NA HUGO 1989-09-18 21:00:00 TS 19.4001 -66.6394 main 111 111 P_____________ AL111989 19.4001 -66.6394 HU 102 958 3 7 328
1989254N13340 1989 98 NA NA HUGO 1989-09-19 00:00:00 TS 19.7000 -66.8000 100 959 hurdat_atl main 145 145 O_____________ hurdat_atl AL111989 19.7000 -66.8000 HU 100 959 3 9 335
1989254N13340 1989 98 NA NA HUGO 1989-09-19 03:00:00 TS 20.1774 -67.0276 main 201 201 P_____________ AL111989 20.1774 -67.0276 HU 95 960 2 11 335
1989254N13340 1989 98 NA NA HUGO 1989-09-19 06:00:00 TS 20.7000 -67.3000 90 962 hurdat_atl main 252 252 O_____________ hurdat_atl AL111989 20.7000 -67.3000 HU 90 962 2 11 329
1989254N13340 1989 98 NA NA HUGO 1989-09-19 09:00:00 TS 21.1501 -67.6426 main 276 270 P_____________ AL111989 21.1501 -67.6426 HU 90 963 2 11 324
1989254N13340 1989 98 NA NA HUGO 1989-09-19 12:00:00 TS 21.6000 -68.0000 90 964 hurdat_atl main 290 290 O_____________ hurdat_atl AL111989 21.6000 -68.0000 HU 90 964 2 11 327
1989254N13340 1989 98 NA NA HUGO 1989-09-19 15:00:00 TS 22.0999 -68.3003 main 329 329 P_____________ AL111989 22.0999 -68.3003 HU 90 965 2 11 331
1989254N13340 1989 98 NA NA HUGO 1989-09-19 18:00:00 TS 22.6000 -68.6000 90 966 hurdat_atl main 365 365 O_____________ hurdat_atl AL111989 22.6000 -68.6000 HU 90 966 2 11 328
1989254N13340 1989 98 NA NA HUGO 1989-09-19 21:00:00 TS 23.0574 -68.9353 main 407 404 P_____________ AL111989 23.0574 -68.9353 HU 90 961 2 11 324
1989254N13340 1989 98 NA NA HUGO 1989-09-20 00:00:00 TS 23.5000 -69.3000 90 957 hurdat_atl main 434 434 O_____________ hurdat_atl AL111989 23.5000 -69.3000 HU 90 957 2 11 323
1989254N13340 1989 98 NA NA HUGO 1989-09-20 03:00:00 TS 23.9574 -69.6852 main 461 453 P_____________ AL111989 23.9574 -69.6852 HU 90 957 2 12 321
1989254N13340 1989 98 NA NA HUGO 1989-09-20 06:00:00 TS 24.4000 -70.1000 90 957 hurdat_atl main 464 463 O_____________ hurdat_atl AL111989 24.4000 -70.1000 HU 90 957 2 11 317
1989254N13340 1989 98 NA NA HUGO 1989-09-20 09:00:00 TS 24.7847 -70.5208 main 476 471 P_____________ AL111989 24.7847 -70.5208 HU 92 957 2 11 314
1989254N13340 1989 98 NA NA HUGO 1989-09-20 12:00:00 TS 25.2000 -71.0000 95 958 hurdat_atl main 491 491 O_____________ hurdat_atl AL111989 25.2000 -71.0000 HU 95 958 2 14 315
1989254N13340 1989 98 NA NA HUGO 1989-09-20 15:00:00 TS 25.7425 -71.5773 main 522 522 P_____________ AL111989 25.7425 -71.5773 HU 95 955 2 15 316
1989254N13340 1989 98 NA NA HUGO 1989-09-20 18:00:00 TS 26.3000 -72.2000 95 953 hurdat_atl main 575 557 O_____________ hurdat_atl AL111989 26.3000 -72.2000 HU 95 953 2 15 314
1989254N13340 1989 98 NA NA HUGO 1989-09-20 21:00:00 TS 26.7719 -72.7783 main 552 515 P_____________ AL111989 26.7719 -72.7783 HU 97 951 3 14 310
1989254N13340 1989 98 NA NA HUGO 1989-09-21 00:00:00 TS 27.2000 -73.4000 100 950 hurdat_atl main 515 471 O_____________ hurdat_atl AL111989 27.2000 -73.4000 HU 100 950 3 15 304
1989254N13340 1989 98 NA NA HUGO 1989-09-21 03:00:00 TS 27.5928 -74.1505 main 470 446 P_____________ AL111989 27.5928 -74.1505 HU 100 950 3 16 301
1989254N13340 1989 98 NA NA HUGO 1989-09-21 06:00:00 TS 28.0000 -74.9000 100 950 hurdat_atl main 446 440 O_____________ hurdat_atl AL111989 28.0000 -74.9000 HU 100 950 3 15 306
1989254N13340 1989 98 NA NA HUGO 1989-09-21 09:00:00 TS 28.4692 -75.5086 main 453 432 P_____________ AL111989 28.4692 -75.5086 HU 105 949 3 15 313
1989254N13340 1989 98 NA NA HUGO 1989-09-21 12:00:00 TS 29.0000 -76.1000 110 948 hurdat_atl main 432 376 O_____________ hurdat_atl AL111989 29.0000 -76.1000 HU 110 948 3 16 314
1989254N13340 1989 98 NA NA HUGO 1989-09-21 15:00:00 TS 29.5625 -76.7931 main 379 346 P_____________ AL111989 29.5625 -76.7931 HU 115 946 4 17 315
1989254N13340 1989 98 NA NA HUGO 1989-09-21 18:00:00 TS 30.2000 -77.5000 120 944 hurdat_atl main 346 260 O_____________ hurdat_atl AL111989 30.2000 -77.5000 HU 120 944 4 18 319
1989254N13340 1989 98 NA NA HUGO 1989-09-21 21:00:00 TS 30.9144 -78.1401 main 260 150 P_____________ AL111989 30.9144 -78.1401 HU 120 939 4 19 323
1989254N13340 1989 98 NA NA HUGO 1989-09-22 00:00:00 TS 31.7000 -78.8000 120 935 hurdat_atl main 150 50 O_____________ hurdat_atl AL111989 31.7000 -78.8000 HU 120 935 4 20 323
1989254N13340 1989 98 NA NA HUGO 1989-09-22 03:00:00 TS 32.4921 -79.5469 main 43 0 P_____________ AL111989 32.4921 -79.5469 HU 120 934 4 21 323
1989254N13340 1989 98 NA NA HUGO 1989-09-22 04:00:00 TS 32.8000 -79.8000 120 934 hurdat_atl main 0 0 O_____________ hurdat_atl AL111989 32.8000 -79.8000 L HU 120 934 4 24 328
1989254N13340 1989 98 NA NA HUGO 1989-09-22 06:00:00 TS 33.5000 -80.3000 85 952 hurdat_atl main 0 0 O_____________ hurdat_atl AL111989 33.5000 -80.3000 HU 85 952 2 26 330
1989254N13340 1989 98 NA NA HUGO 1989-09-22 09:00:00 TS 34.6528 -81.0932 main 0 0 P_____________ AL111989 34.6528 -81.0932 HU 70 963 1 27 334
1989254N13340 1989 98 NA NA HUGO 1989-09-22 12:00:00 TS 35.9000 -81.7000 55 975 hurdat_atl main 0 0 O_____________ hurdat_atl AL111989 35.9000 -81.7000 TS 55 975 0 26 344
1989254N13340 1989 98 NA NA HUGO 1989-09-22 15:00:00 TS 37.1012 -81.9706 main 0 0 P_____________ AL111989 37.1012 -81.9706 TS 47 981 0 26 358
1989254N13340 1989 98 NA NA HUGO 1989-09-22 18:00:00 TS 38.5000 -81.8000 40 987 hurdat_atl main 0 0 O_____________ hurdat_atl AL111989 38.5000 -81.8000 TS 40 987 0 32 8
1989254N13340 1989 98 NA NA HUGO 1989-09-22 21:00:00 TS 40.2502 -81.4122 main 0 0 P_____________ AL111989 40.2502 -81.4122 TS 37 987 0 39 18
1989254N13340 1989 98 NA NA HUGO 1989-09-23 00:00:00 ET 42.2000 -80.2000 35 988 hurdat_atl main 0 0 O_____________ hurdat_atl AL111989 42.2000 -80.2000 EX 35 988 -4 48 35
1989254N13340 1989 98 NA NA HUGO 1989-09-23 03:00:00 ET 44.1647 -77.6623 main 0 0 P_____________ AL111989 44.1647 -77.6623 EX 37 989 -4 56 47
1989254N13340 1989 98 NA NA HUGO 1989-09-23 06:00:00 ET 46.0000 -74.5000 40 990 hurdat_atl main 0 0 O_____________ hurdat_atl AL111989 46.0000 -74.5000 EX 40 990 -4 54 50
1989254N13340 1989 98 NA NA HUGO 1989-09-23 09:00:00 ET 47.6330 -71.6181 main 0 0 P_____________ AL111989 47.6330 -71.6181 EX 40 991 -4 48 51
1989254N13340 1989 98 NA NA HUGO 1989-09-23 12:00:00 ET 49.0000 -69.0000 40 992 hurdat_atl main 0 0 O_____________ hurdat_atl AL111989 49.0000 -69.0000 EX 40 992 -4 40 52
1989254N13340 1989 98 NA NA HUGO 1989-09-23 15:00:00 ET 50.1421 -66.7999 main 0 0 P_____________ AL111989 50.1421 -66.7999 EX 40 992 -4 32 52
1989254N13340 1989 98 NA NA HUGO 1989-09-23 18:00:00 ET 51.0000 -65.0000 40 993 hurdat_atl main 0 0 O_____________ hurdat_atl AL111989 51.0000 -65.0000 EX 40 993 -4 26 56
1989254N13340 1989 98 NA NA HUGO 1989-09-23 21:00:00 ET 51.6103 -63.3044 main 0 0 P_____________ AL111989 51.6103 -63.3044 EX 40 993 -4 21 62
1989254N13340 1989 98 NA NA HUGO 1989-09-24 00:00:00 ET 52.0000 -62.0000 40 994 hurdat_atl main 0 0 O_____________ hurdat_atl AL111989 52.0000 -62.0000 EX 40 994 -4 15 64
1989254N13340 1989 98 NA NA HUGO 1989-09-24 03:00:00 ET 52.2846 -61.0949 main 0 0 P_____________ AL111989 52.2846 -61.0949 EX 40 993 -4 10 61
1989254N13340 1989 98 NA NA HUGO 1989-09-24 06:00:00 ET 52.5000 -60.5000 40 993 hurdat_atl main 0 0 O_____________ hurdat_atl AL111989 52.5000 -60.5000 EX 40 993 -4 8 56
1989254N13340 1989 98 NA NA HUGO 1989-09-24 09:00:00 ET 52.7492 -59.9613 main 0 0 P_____________ AL111989 52.7492 -59.9613 EX 40 992 -4 8 50
1989254N13340 1989 98 NA NA HUGO 1989-09-24 12:00:00 ET 53.0000 -59.5000 40 991 hurdat_atl main 0 0 O_____________ hurdat_atl AL111989 53.0000 -59.5000 EX 40 991 -4 7 48
1989254N13340 1989 98 NA NA HUGO 1989-09-24 15:00:00 ET 53.2492 -59.0362 main 0 0 P_____________ AL111989 53.2492 -59.0362 EX 40 990 -4 8 50
1989254N13340 1989 98 NA NA HUGO 1989-09-24 18:00:00 ET 53.5000 -58.5000 40 989 hurdat_atl main 0 0 O_____________ hurdat_atl AL111989 53.5000 -58.5000 EX 40 989 -4 7 58
1989254N13340 1989 98 NA NA HUGO 1989-09-24 21:00:00 ET 53.6292 -58.0279 main 0 0 P_____________ AL111989 53.6292 -58.0279 EX 40 986 -4 10 61
1989254N13340 1989 98 NA NA HUGO 1989-09-25 00:00:00 ET 54.0000 -57.0000 40 983 hurdat_atl main 12 12 O_____________ hurdat_atl AL111989 54.0000 -57.0000 EX 40 983 -4 22 56
1989254N13340 1989 98 NA NA HUGO 1989-09-25 03:00:00 ET 54.8910 -54.8467 main 162 162 P_____________ AL111989 54.8910 -54.8467 EX 40 981 -4 35 55
1989254N13340 1989 98 NA NA HUGO 1989-09-25 06:00:00 ET 56.0000 -52.0000 40 979 hurdat_atl main 367 367 O_____________ hurdat_atl AL111989 56.0000 -52.0000 EX 40 979 -4 39 56
1989254N13340 1989 98 NA NA HUGO 1989-09-25 09:00:00 ET 57.0466 -49.0324 main 407 245 P_____________ AL111989 57.0466 -49.0324 EX 40 976 -4 38 58
1989254N13340 1989 98 NA NA HUGO 1989-09-25 12:00:00 ET 58.0000 -46.0000 40 974 hurdat_atl main 231 O_____________ hurdat_atl AL111989 58.0000 -46.0000 EX 40 974 -4 37 59

IBTrACS Databaseについて

本データベースは、米国NOAAが公開する1842年以降の世界の熱帯低気圧のベストトラックデータアーカイブInternational Best Track Archive for Climate Stewardship (IBTrACS)を、ウェブで閲覧しやすい形式に変換したものです。

最終更新日:2021-12-06